sensor_id;sensor_type;location;lat;lon;timestamp;P1;durP1;ratioP1;P2;durP2;ratioP2
51248;SDS011;39642;47.556;18.728;2023-08-12T00:01:26;8.50;;;3.20;;
51248;SDS011;39642;47.556;18.728;2023-08-12T00:03:51;9.40;;;3.00;;
51248;SDS011;39642;47.556;18.728;2023-08-12T00:06:17;8.32;;;2.90;;
51248;SDS011;39642;47.556;18.728;2023-08-12T00:08:43;8.77;;;3.00;;
51248;SDS011;39642;47.556;18.728;2023-08-12T00:11:09;8.82;;;2.90;;
51248;SDS011;39642;47.556;18.728;2023-08-12T00:13:36;8.63;;;2.97;;
51248;SDS011;39642;47.556;18.728;2023-08-12T00:16:02;9.43;;;2.90;;
51248;SDS011;39642;47.556;18.728;2023-08-12T00:18:28;8.85;;;3.10;;
51248;SDS011;39642;47.556;18.728;2023-08-12T00:20:54;9.32;;;2.90;;
51248;SDS011;39642;47.556;18.728;2023-08-12T00:23:20;8.90;;;3.00;;
51248;SDS011;39642;47.556;18.728;2023-08-12T00:25:46;8.38;;;2.90;;
51248;SDS011;39642;47.556;18.728;2023-08-12T00:28:12;8.23;;;2.92;;
51248;SDS011;39642;47.556;18.728;2023-08-12T00:30:38;8.10;;;2.67;;
51248;SDS011;39642;47.556;18.728;2023-08-12T00:33:04;8.70;;;3.00;;
51248;SDS011;39642;47.556;18.728;2023-08-12T00:35:30;9.63;;;2.92;;
51248;SDS011;39642;47.556;18.728;2023-08-12T00:37:56;7.90;;;2.67;;
51248;SDS011;39642;47.556;18.728;2023-08-12T00:40:22;9.20;;;3.00;;
51248;SDS011;39642;47.556;18.728;2023-08-12T00:42:48;9.20;;;3.12;;
51248;SDS011;39642;47.556;18.728;2023-08-12T00:45:13;8.75;;;2.80;;
51248;SDS011;39642;47.556;18.728;2023-08-12T00:47:40;8.55;;;2.85;;
51248;SDS011;39642;47.556;18.728;2023-08-12T00:50:07;9.07;;;2.95;;
51248;SDS011;39642;47.556;18.728;2023-08-12T00:52:35;8.95;;;2.75;;
51248;SDS011;39642;47.556;18.728;2023-08-12T00:55:02;8.57;;;2.90;;
51248;SDS011;39642;47.556;18.728;2023-08-12T00:57:28;8.48;;;2.87;;
51248;SDS011;39642;47.556;18.728;2023-08-12T00:59:55;8.95;;;3.03;;
51248;SDS011;39642;47.556;18.728;2023-08-12T01:02:21;9.32;;;3.33;;
51248;SDS011;39642;47.556;18.728;2023-08-12T01:04:47;8.48;;;2.85;;
51248;SDS011;39642;47.556;18.728;2023-08-12T01:07:13;7.95;;;2.80;;
51248;SDS011;39642;47.556;18.728;2023-08-12T01:09:39;8.13;;;2.70;;
51248;SDS011;39642;47.556;18.728;2023-08-12T01:12:06;8.43;;;2.92;;
51248;SDS011;39642;47.556;18.728;2023-08-12T01:17:05;8.40;;;2.65;;
51248;SDS011;39642;47.556;18.728;2023-08-12T01:22:01;8.52;;;2.85;;
51248;SDS011;39642;47.556;18.728;2023-08-12T01:24:33;8.00;;;2.90;;
51248;SDS011;39642;47.556;18.728;2023-08-12T01:27:04;8.80;;;2.70;;
51248;SDS011;39642;47.556;18.728;2023-08-12T01:29:35;8.75;;;2.83;;
51248;SDS011;39642;47.556;18.728;2023-08-12T01:37:31;8.73;;;2.83;;
51248;SDS011;39642;47.556;18.728;2023-08-12T01:40:00;8.85;;;2.80;;
51248;SDS011;39642;47.556;18.728;2023-08-12T01:42:32;8.65;;;3.03;;
51248;SDS011;39642;47.556;18.728;2023-08-12T01:44:58;8.23;;;2.75;;
51248;SDS011;39642;47.556;18.728;2023-08-12T01:47:27;8.05;;;2.80;;
51248;SDS011;39642;47.556;18.728;2023-08-12T01:49:53;8.45;;;2.75;;
51248;SDS011;39642;47.556;18.728;2023-08-12T01:52:19;9.05;;;2.70;;
51248;SDS011;39642;47.556;18.728;2023-08-12T01:54:45;9.20;;;2.90;;
51248;SDS011;39642;47.556;18.728;2023-08-12T01:57:11;8.43;;;2.80;;
51248;SDS011;39642;47.556;18.728;2023-08-12T01:59:38;8.50;;;2.80;;
51248;SDS011;39642;47.556;18.728;2023-08-12T02:02:03;8.43;;;2.75;;
51248;SDS011;39642;47.556;18.728;2023-08-12T02:04:30;7.93;;;2.65;;
51248;SDS011;39642;47.556;18.728;2023-08-12T02:06:56;7.68;;;2.55;;
51248;SDS011;39642;47.556;18.728;2023-08-12T02:09:22;8.13;;;2.80;;
51248;SDS011;39642;47.556;18.728;2023-08-12T02:11:49;7.55;;;2.53;;
51248;SDS011;39642;47.556;18.728;2023-08-12T02:14:15;8.23;;;2.70;;
51248;SDS011;39642;47.556;18.728;2023-08-12T02:16:41;8.15;;;2.67;;
51248;SDS011;39642;47.556;18.728;2023-08-12T02:19:07;8.23;;;2.70;;
51248;SDS011;39642;47.556;18.728;2023-08-12T02:21:33;7.62;;;2.50;;
51248;SDS011;39642;47.556;18.728;2023-08-12T02:23:59;8.68;;;2.90;;
51248;SDS011;39642;47.556;18.728;2023-08-12T02:26:25;8.30;;;2.80;;
51248;SDS011;39642;47.556;18.728;2023-08-12T02:28:51;8.52;;;2.80;;
51248;SDS011;39642;47.556;18.728;2023-08-12T02:31:17;8.18;;;2.60;;
51248;SDS011;39642;47.556;18.728;2023-08-12T02:33:43;8.52;;;2.80;;
51248;SDS011;39642;47.556;18.728;2023-08-12T02:36:09;7.72;;;2.70;;
51248;SDS011;39642;47.556;18.728;2023-08-12T02:38:35;7.80;;;2.80;;
51248;SDS011;39642;47.556;18.728;2023-08-12T02:41:00;9.95;;;2.92;;
51248;SDS011;39642;47.556;18.728;2023-08-12T02:43:26;8.07;;;2.50;;
51248;SDS011;39642;47.556;18.728;2023-08-12T02:45:52;8.10;;;2.58;;
51248;SDS011;39642;47.556;18.728;2023-08-12T02:48:18;8.10;;;2.42;;
51248;SDS011;39642;47.556;18.728;2023-08-12T02:50:44;8.90;;;2.83;;
51248;SDS011;39642;47.556;18.728;2023-08-12T02:53:10;8.10;;;2.55;;
51248;SDS011;39642;47.556;18.728;2023-08-12T02:55:36;7.87;;;2.50;;
51248;SDS011;39642;47.556;18.728;2023-08-12T02:58:03;7.47;;;2.47;;
51248;SDS011;39642;47.556;18.728;2023-08-12T03:00:29;8.63;;;2.70;;
51248;SDS011;39642;47.556;18.728;2023-08-12T03:02:55;8.43;;;2.58;;
51248;SDS011;39642;47.556;18.728;2023-08-12T03:05:21;8.43;;;2.65;;
51248;SDS011;39642;47.556;18.728;2023-08-12T03:07:47;7.87;;;2.65;;
51248;SDS011;39642;47.556;18.728;2023-08-12T03:10:14;7.53;;;2.42;;
51248;SDS011;39642;47.556;18.728;2023-08-12T03:12:39;8.65;;;2.58;;
51248;SDS011;39642;47.556;18.728;2023-08-12T03:15:08;7.80;;;2.65;;
51248;SDS011;39642;47.556;18.728;2023-08-12T03:17:36;8.40;;;2.70;;
51248;SDS011;39642;47.556;18.728;2023-08-12T03:20:04;8.30;;;2.70;;
51248;SDS011;39642;47.556;18.728;2023-08-12T03:22:32;8.10;;;2.60;;
51248;SDS011;39642;47.556;18.728;2023-08-12T03:24:58;7.70;;;2.70;;
51248;SDS011;39642;47.556;18.728;2023-08-12T03:27:24;8.00;;;2.50;;
51248;SDS011;39642;47.556;18.728;2023-08-12T03:29:50;7.78;;;2.55;;
51248;SDS011;39642;47.556;18.728;2023-08-12T03:32:15;7.82;;;2.33;;
51248;SDS011;39642;47.556;18.728;2023-08-12T03:34:41;9.07;;;2.80;;
51248;SDS011;39642;47.556;18.728;2023-08-12T03:37:07;8.00;;;2.50;;
51248;SDS011;39642;47.556;18.728;2023-08-12T03:39:33;7.70;;;2.53;;
51248;SDS011;39642;47.556;18.728;2023-08-12T03:41:59;8.63;;;2.90;;
51248;SDS011;39642;47.556;18.728;2023-08-12T03:44:25;8.05;;;2.50;;
51248;SDS011;39642;47.556;18.728;2023-08-12T03:46:51;7.70;;;2.50;;
51248;SDS011;39642;47.556;18.728;2023-08-12T03:49:17;8.32;;;2.80;;
51248;SDS011;39642;47.556;18.728;2023-08-12T03:51:43;8.60;;;2.50;;
51248;SDS011;39642;47.556;18.728;2023-08-12T03:54:09;7.90;;;2.40;;
51248;SDS011;39642;47.556;18.728;2023-08-12T03:56:35;9.15;;;2.47;;
51248;SDS011;39642;47.556;18.728;2023-08-12T03:59:00;8.65;;;2.42;;
51248;SDS011;39642;47.556;18.728;2023-08-12T04:01:26;7.78;;;2.58;;
51248;SDS011;39642;47.556;18.728;2023-08-12T04:03:52;8.93;;;2.70;;
51248;SDS011;39642;47.556;18.728;2023-08-12T04:06:18;8.93;;;2.47;;
51248;SDS011;39642;47.556;18.728;2023-08-12T04:08:44;8.35;;;2.50;;
51248;SDS011;39642;47.556;18.728;2023-08-12T04:11:10;7.53;;;2.53;;
51248;SDS011;39642;47.556;18.728;2023-08-12T04:13:36;8.20;;;2.55;;
51248;SDS011;39642;47.556;18.728;2023-08-12T04:16:01;8.50;;;2.90;;
51248;SDS011;39642;47.556;18.728;2023-08-12T04:18:27;7.68;;;2.60;;
51248;SDS011;39642;47.556;18.728;2023-08-12T04:20:53;8.70;;;2.60;;
51248;SDS011;39642;47.556;18.728;2023-08-12T04:23:19;9.80;;;2.70;;
51248;SDS011;39642;47.556;18.728;2023-08-12T04:25:48;7.87;;;2.62;;
51248;SDS011;39642;47.556;18.728;2023-08-12T04:28:15;8.15;;;2.70;;
51248;SDS011;39642;47.556;18.728;2023-08-12T04:30:45;9.32;;;2.55;;
51248;SDS011;39642;47.556;18.728;2023-08-12T04:33:13;9.18;;;2.78;;
51248;SDS011;39642;47.556;18.728;2023-08-12T04:35:40;7.25;;;2.50;;
51248;SDS011;39642;47.556;18.728;2023-08-12T04:38:06;9.40;;;2.60;;
51248;SDS011;39642;47.556;18.728;2023-08-12T04:40:32;8.65;;;2.62;;
51248;SDS011;39642;47.556;18.728;2023-08-12T04:42:58;8.80;;;2.67;;
51248;SDS011;39642;47.556;18.728;2023-08-12T04:45:25;8.50;;;2.67;;
51248;SDS011;39642;47.556;18.728;2023-08-12T04:47:51;8.23;;;2.70;;
51248;SDS011;39642;47.556;18.728;2023-08-12T04:50:17;7.43;;;2.50;;
51248;SDS011;39642;47.556;18.728;2023-08-12T04:52:44;8.40;;;2.60;;
51248;SDS011;39642;47.556;18.728;2023-08-12T04:55:10;9.20;;;2.80;;
51248;SDS011;39642;47.556;18.728;2023-08-12T04:57:39;8.60;;;2.78;;
51248;SDS011;39642;47.556;18.728;2023-08-12T05:00:05;8.20;;;2.53;;
51248;SDS011;39642;47.556;18.728;2023-08-12T05:02:34;7.95;;;2.60;;
51248;SDS011;39642;47.556;18.728;2023-08-12T05:05:00;8.00;;;2.62;;
51248;SDS011;39642;47.556;18.728;2023-08-12T05:07:26;8.20;;;2.60;;
51248;SDS011;39642;47.556;18.728;2023-08-12T05:09:52;7.72;;;2.55;;
51248;SDS011;39642;47.556;18.728;2023-08-12T05:12:19;8.45;;;2.87;;
51248;SDS011;39642;47.556;18.728;2023-08-12T05:14:44;8.70;;;2.72;;
51248;SDS011;39642;47.556;18.728;2023-08-12T05:17:10;7.68;;;2.53;;
51248;SDS011;39642;47.556;18.728;2023-08-12T05:19:36;8.70;;;2.78;;
51248;SDS011;39642;47.556;18.728;2023-08-12T05:22:02;7.50;;;2.70;;
51248;SDS011;39642;47.556;18.728;2023-08-12T05:24:28;8.02;;;2.60;;
51248;SDS011;39642;47.556;18.728;2023-08-12T05:26:54;8.65;;;2.58;;
51248;SDS011;39642;47.556;18.728;2023-08-12T05:29:20;8.38;;;2.70;;
51248;SDS011;39642;47.556;18.728;2023-08-12T05:31:46;8.43;;;2.80;;
51248;SDS011;39642;47.556;18.728;2023-08-12T05:34:11;8.60;;;2.80;;
51248;SDS011;39642;47.556;18.728;2023-08-12T05:36:37;7.75;;;2.50;;
51248;SDS011;39642;47.556;18.728;2023-08-12T05:39:03;9.02;;;2.80;;
51248;SDS011;39642;47.556;18.728;2023-08-12T05:41:29;8.77;;;2.90;;
51248;SDS011;39642;47.556;18.728;2023-08-12T05:43:55;9.25;;;2.80;;
51248;SDS011;39642;47.556;18.728;2023-08-12T05:46:21;8.65;;;2.58;;
51248;SDS011;39642;47.556;18.728;2023-08-12T05:48:47;9.30;;;2.85;;
51248;SDS011;39642;47.556;18.728;2023-08-12T05:51:13;9.68;;;3.05;;
51248;SDS011;39642;47.556;18.728;2023-08-12T05:53:39;8.35;;;2.75;;
51248;SDS011;39642;47.556;18.728;2023-08-12T05:56:04;8.63;;;2.85;;
51248;SDS011;39642;47.556;18.728;2023-08-12T05:58:30;8.32;;;2.67;;
51248;SDS011;39642;47.556;18.728;2023-08-12T06:00:56;8.80;;;2.62;;
51248;SDS011;39642;47.556;18.728;2023-08-12T06:03:22;9.07;;;2.85;;
51248;SDS011;39642;47.556;18.728;2023-08-12T06:05:48;8.38;;;2.80;;
51248;SDS011;39642;47.556;18.728;2023-08-12T06:08:14;8.90;;;2.72;;
51248;SDS011;39642;47.556;18.728;2023-08-12T06:10:41;8.48;;;2.62;;
51248;SDS011;39642;47.556;18.728;2023-08-12T06:13:06;8.32;;;2.70;;
51248;SDS011;39642;47.556;18.728;2023-08-12T06:15:32;7.90;;;2.72;;
51248;SDS011;39642;47.556;18.728;2023-08-12T06:17:59;9.50;;;3.00;;
51248;SDS011;39642;47.556;18.728;2023-08-12T06:20:25;10.25;;;3.10;;
51248;SDS011;39642;47.556;18.728;2023-08-12T06:22:51;9.85;;;3.00;;
51248;SDS011;39642;47.556;18.728;2023-08-12T06:25:18;9.90;;;3.08;;
51248;SDS011;39642;47.556;18.728;2023-08-12T06:27:45;10.45;;;3.08;;
51248;SDS011;39642;47.556;18.728;2023-08-12T06:30:11;8.98;;;3.05;;
51248;SDS011;39642;47.556;18.728;2023-08-12T06:32:38;9.57;;;3.40;;
51248;SDS011;39642;47.556;18.728;2023-08-12T06:35:04;9.80;;;3.50;;
51248;SDS011;39642;47.556;18.728;2023-08-12T06:37:30;12.00;;;3.50;;
51248;SDS011;39642;47.556;18.728;2023-08-12T06:39:56;9.55;;;3.22;;
51248;SDS011;39642;47.556;18.728;2023-08-12T06:42:22;9.30;;;3.12;;
51248;SDS011;39642;47.556;18.728;2023-08-12T06:44:54;9.82;;;3.33;;
51248;SDS011;39642;47.556;18.728;2023-08-12T06:47:21;10.52;;;3.60;;
51248;SDS011;39642;47.556;18.728;2023-08-12T06:49:46;8.93;;;3.20;;
51248;SDS011;39642;47.556;18.728;2023-08-12T06:52:13;10.20;;;3.40;;
51248;SDS011;39642;47.556;18.728;2023-08-12T06:54:39;8.93;;;3.20;;
51248;SDS011;39642;47.556;18.728;2023-08-12T06:57:05;8.57;;;3.22;;
51248;SDS011;39642;47.556;18.728;2023-08-12T06:59:30;9.68;;;3.20;;
51248;SDS011;39642;47.556;18.728;2023-08-12T07:01:56;9.65;;;3.22;;
51248;SDS011;39642;47.556;18.728;2023-08-12T07:04:22;9.10;;;3.15;;
51248;SDS011;39642;47.556;18.728;2023-08-12T07:06:48;8.98;;;3.05;;
51248;SDS011;39642;47.556;18.728;2023-08-12T07:09:14;9.30;;;3.15;;
51248;SDS011;39642;47.556;18.728;2023-08-12T07:11:40;10.23;;;3.15;;
51248;SDS011;39642;47.556;18.728;2023-08-12T07:14:06;10.48;;;3.05;;
51248;SDS011;39642;47.556;18.728;2023-08-12T07:16:33;9.90;;;3.28;;
51248;SDS011;39642;47.556;18.728;2023-08-12T07:18:59;9.90;;;3.10;;
51248;SDS011;39642;47.556;18.728;2023-08-12T07:21:25;9.27;;;3.08;;
51248;SDS011;39642;47.556;18.728;2023-08-12T07:23:51;9.50;;;3.25;;
51248;SDS011;39642;47.556;18.728;2023-08-12T07:26:16;9.45;;;3.10;;
51248;SDS011;39642;47.556;18.728;2023-08-12T07:28:42;10.43;;;3.15;;
51248;SDS011;39642;47.556;18.728;2023-08-12T07:31:08;9.20;;;3.12;;
51248;SDS011;39642;47.556;18.728;2023-08-12T07:33:34;9.18;;;3.22;;
51248;SDS011;39642;47.556;18.728;2023-08-12T07:36:01;9.93;;;2.87;;
51248;SDS011;39642;47.556;18.728;2023-08-12T07:38:27;8.70;;;2.90;;
51248;SDS011;39642;47.556;18.728;2023-08-12T07:40:53;8.63;;;2.95;;
51248;SDS011;39642;47.556;18.728;2023-08-12T07:43:19;9.40;;;2.85;;
51248;SDS011;39642;47.556;18.728;2023-08-12T07:45:50;9.02;;;3.15;;
51248;SDS011;39642;47.556;18.728;2023-08-12T07:48:16;8.60;;;2.85;;
51248;SDS011;39642;47.556;18.728;2023-08-12T07:50:42;9.48;;;2.80;;
51248;SDS011;39642;47.556;18.728;2023-08-12T07:53:08;8.90;;;2.90;;
51248;SDS011;39642;47.556;18.728;2023-08-12T07:55:34;8.38;;;2.80;;
51248;SDS011;39642;47.556;18.728;2023-08-12T07:58:00;8.80;;;2.80;;
51248;SDS011;39642;47.556;18.728;2023-08-12T08:00:26;8.07;;;2.75;;
51248;SDS011;39642;47.556;18.728;2023-08-12T08:02:52;10.32;;;3.00;;
51248;SDS011;39642;47.556;18.728;2023-08-12T08:05:18;8.98;;;2.83;;
51248;SDS011;39642;47.556;18.728;2023-08-12T08:07:44;8.52;;;3.05;;
51248;SDS011;39642;47.556;18.728;2023-08-12T08:10:10;11.73;;;2.92;;
51248;SDS011;39642;47.556;18.728;2023-08-12T08:12:36;8.45;;;2.85;;
51248;SDS011;39642;47.556;18.728;2023-08-12T08:15:01;8.52;;;2.92;;
51248;SDS011;39642;47.556;18.728;2023-08-12T08:17:28;8.13;;;2.72;;
51248;SDS011;39642;47.556;18.728;2023-08-12T08:19:54;9.55;;;3.08;;
51248;SDS011;39642;47.556;18.728;2023-08-12T08:22:20;8.50;;;2.90;;
51248;SDS011;39642;47.556;18.728;2023-08-12T08:24:46;8.65;;;2.70;;
51248;SDS011;39642;47.556;18.728;2023-08-12T08:27:12;9.55;;;2.80;;
51248;SDS011;39642;47.556;18.728;2023-08-12T08:29:38;9.68;;;2.97;;
51248;SDS011;39642;47.556;18.728;2023-08-12T08:32:04;8.75;;;2.85;;
51248;SDS011;39642;47.556;18.728;2023-08-12T08:34:31;9.30;;;2.97;;
51248;SDS011;39642;47.556;18.728;2023-08-12T08:36:56;10.48;;;3.00;;
51248;SDS011;39642;47.556;18.728;2023-08-12T08:39:22;9.45;;;3.00;;
51248;SDS011;39642;47.556;18.728;2023-08-12T08:41:48;10.70;;;2.92;;
51248;SDS011;39642;47.556;18.728;2023-08-12T08:44:14;9.73;;;3.00;;
51248;SDS011;39642;47.556;18.728;2023-08-12T08:46:41;10.40;;;3.00;;
51248;SDS011;39642;47.556;18.728;2023-08-12T08:49:08;8.65;;;3.08;;
51248;SDS011;39642;47.556;18.728;2023-08-12T08:51:35;12.32;;;2.80;;
51248;SDS011;39642;47.556;18.728;2023-08-12T08:54:04;10.15;;;3.10;;
51248;SDS011;39642;47.556;18.728;2023-08-12T08:56:31;12.77;;;2.97;;
51248;SDS011;39642;47.556;18.728;2023-08-12T08:58:58;8.30;;;2.90;;
51248;SDS011;39642;47.556;18.728;2023-08-12T09:01:24;9.00;;;2.75;;
51248;SDS011;39642;47.556;18.728;2023-08-12T09:03:52;9.05;;;2.70;;
51248;SDS011;39642;47.556;18.728;2023-08-12T09:06:20;8.38;;;2.78;;
51248;SDS011;39642;47.556;18.728;2023-08-12T09:08:47;10.18;;;3.08;;
51248;SDS011;39642;47.556;18.728;2023-08-12T09:11:14;10.93;;;2.90;;
51248;SDS011;39642;47.556;18.728;2023-08-12T09:13:42;10.35;;;2.85;;
51248;SDS011;39642;47.556;18.728;2023-08-12T09:16:08;11.60;;;2.62;;
51248;SDS011;39642;47.556;18.728;2023-08-12T09:18:35;8.48;;;2.50;;
51248;SDS011;39642;47.556;18.728;2023-08-12T09:21:02;10.10;;;2.60;;
51248;SDS011;39642;47.556;18.728;2023-08-12T09:23:28;7.82;;;2.60;;
51248;SDS011;39642;47.556;18.728;2023-08-12T09:26:00;11.32;;;2.87;;
51248;SDS011;39642;47.556;18.728;2023-08-12T09:28:26;11.85;;;2.87;;
51248;SDS011;39642;47.556;18.728;2023-08-12T09:30:52;10.30;;;3.35;;
51248;SDS011;39642;47.556;18.728;2023-08-12T09:33:23;9.77;;;2.62;;
51248;SDS011;39642;47.556;18.728;2023-08-12T09:38:18;9.65;;;2.92;;
51248;SDS011;39642;47.556;18.728;2023-08-12T09:40:46;10.52;;;2.90;;
51248;SDS011;39642;47.556;18.728;2023-08-12T09:43:12;9.25;;;2.70;;
51248;SDS011;39642;47.556;18.728;2023-08-12T09:45:37;8.98;;;3.00;;
51248;SDS011;39642;47.556;18.728;2023-08-12T09:48:03;9.02;;;2.80;;
51248;SDS011;39642;47.556;18.728;2023-08-12T09:50:30;9.95;;;2.72;;
51248;SDS011;39642;47.556;18.728;2023-08-12T09:52:56;9.93;;;2.80;;
51248;SDS011;39642;47.556;18.728;2023-08-12T09:55:23;11.40;;;2.67;;
51248;SDS011;39642;47.556;18.728;2023-08-12T09:57:53;8.88;;;2.58;;
51248;SDS011;39642;47.556;18.728;2023-08-12T10:00:20;10.77;;;2.62;;
51248;SDS011;39642;47.556;18.728;2023-08-12T10:02:49;8.10;;;2.70;;
51248;SDS011;39642;47.556;18.728;2023-08-12T10:05:31;8.13;;;2.60;;
51248;SDS011;39642;47.556;18.728;2023-08-12T10:07:58;7.50;;;2.50;;
51248;SDS011;39642;47.556;18.728;2023-08-12T10:10:25;9.32;;;2.78;;
51248;SDS011;39642;47.556;18.728;2023-08-12T10:12:52;11.68;;;2.85;;
51248;SDS011;39642;47.556;18.728;2023-08-12T10:15:18;7.95;;;2.30;;
51248;SDS011;39642;47.556;18.728;2023-08-12T10:17:44;9.55;;;2.70;;
51248;SDS011;39642;47.556;18.728;2023-08-12T10:20:19;9.80;;;3.08;;
51248;SDS011;39642;47.556;18.728;2023-08-12T10:22:48;9.45;;;2.83;;
51248;SDS011;39642;47.556;18.728;2023-08-12T10:25:14;8.98;;;2.60;;
51248;SDS011;39642;47.556;18.728;2023-08-12T10:27:43;9.23;;;3.00;;
51248;SDS011;39642;47.556;18.728;2023-08-12T10:30:09;10.50;;;2.62;;
51248;SDS011;39642;47.556;18.728;2023-08-12T10:32:36;8.65;;;2.40;;
51248;SDS011;39642;47.556;18.728;2023-08-12T10:35:02;8.25;;;2.60;;
51248;SDS011;39642;47.556;18.728;2023-08-12T10:37:31;8.18;;;2.50;;
51248;SDS011;39642;47.556;18.728;2023-08-12T10:39:58;9.52;;;2.90;;
51248;SDS011;39642;47.556;18.728;2023-08-12T10:42:40;8.82;;;2.80;;
51248;SDS011;39642;47.556;18.728;2023-08-12T10:45:10;8.50;;;2.50;;
51248;SDS011;39642;47.556;18.728;2023-08-12T10:47:38;9.15;;;2.60;;
51248;SDS011;39642;47.556;18.728;2023-08-12T10:50:21;11.12;;;2.75;;
51248;SDS011;39642;47.556;18.728;2023-08-12T10:52:48;8.15;;;2.65;;
51248;SDS011;39642;47.556;18.728;2023-08-12T10:55:21;7.65;;;2.42;;
51248;SDS011;39642;47.556;18.728;2023-08-12T10:57:47;9.65;;;2.60;;
51248;SDS011;39642;47.556;18.728;2023-08-12T11:00:18;7.90;;;2.50;;
51248;SDS011;39642;47.556;18.728;2023-08-12T11:05:15;8.48;;;2.33;;
51248;SDS011;39642;47.556;18.728;2023-08-12T11:07:44;8.43;;;2.53;;
51248;SDS011;39642;47.556;18.728;2023-08-12T11:10:22;9.13;;;2.75;;
51248;SDS011;39642;47.556;18.728;2023-08-12T11:15:18;7.62;;;2.25;;
51248;SDS011;39642;47.556;18.728;2023-08-12T11:17:45;8.30;;;2.58;;
51248;SDS011;39642;47.556;18.728;2023-08-12T11:20:13;8.07;;;2.60;;
51248;SDS011;39642;47.556;18.728;2023-08-12T11:22:40;8.20;;;2.53;;
51248;SDS011;39642;47.556;18.728;2023-08-12T11:25:08;7.85;;;2.47;;
51248;SDS011;39642;47.556;18.728;2023-08-12T11:27:39;8.27;;;2.40;;
51248;SDS011;39642;47.556;18.728;2023-08-12T11:30:07;8.60;;;2.60;;
51248;SDS011;39642;47.556;18.728;2023-08-12T11:32:36;8.88;;;2.70;;
51248;SDS011;39642;47.556;18.728;2023-08-12T11:35:04;7.57;;;2.30;;
51248;SDS011;39642;47.556;18.728;2023-08-12T11:37:32;7.00;;;2.20;;
51248;SDS011;39642;47.556;18.728;2023-08-12T11:39:58;7.87;;;2.53;;
51248;SDS011;39642;47.556;18.728;2023-08-12T11:42:24;7.50;;;2.30;;
51248;SDS011;39642;47.556;18.728;2023-08-12T11:44:50;8.85;;;2.50;;
51248;SDS011;39642;47.556;18.728;2023-08-12T11:47:16;7.87;;;2.65;;
51248;SDS011;39642;47.556;18.728;2023-08-12T11:49:42;8.07;;;2.62;;
51248;SDS011;39642;47.556;18.728;2023-08-12T11:52:08;7.75;;;2.47;;
51248;SDS011;39642;47.556;18.728;2023-08-12T11:54:36;9.93;;;2.50;;
51248;SDS011;39642;47.556;18.728;2023-08-12T11:57:02;8.93;;;2.58;;
51248;SDS011;39642;47.556;18.728;2023-08-12T11:59:28;9.23;;;2.53;;
51248;SDS011;39642;47.556;18.728;2023-08-12T12:01:54;8.20;;;2.75;;
51248;SDS011;39642;47.556;18.728;2023-08-12T12:04:20;7.85;;;2.50;;
51248;SDS011;39642;47.556;18.728;2023-08-12T12:06:47;7.20;;;2.37;;
51248;SDS011;39642;47.556;18.728;2023-08-12T12:09:15;7.32;;;2.40;;
51248;SDS011;39642;47.556;18.728;2023-08-12T12:11:44;8.48;;;2.47;;
51248;SDS011;39642;47.556;18.728;2023-08-12T12:14:10;9.02;;;2.90;;
51248;SDS011;39642;47.556;18.728;2023-08-12T12:16:37;8.68;;;2.90;;
51248;SDS011;39642;47.556;18.728;2023-08-12T12:19:08;8.23;;;2.65;;
51248;SDS011;39642;47.556;18.728;2023-08-12T12:21:41;7.87;;;2.70;;
51248;SDS011;39642;47.556;18.728;2023-08-12T12:24:11;9.40;;;2.70;;
51248;SDS011;39642;47.556;18.728;2023-08-12T12:26:36;8.73;;;3.03;;
51248;SDS011;39642;47.556;18.728;2023-08-12T12:29:03;10.75;;;3.50;;
51248;SDS011;39642;47.556;18.728;2023-08-12T12:31:35;10.65;;;3.40;;
51248;SDS011;39642;47.556;18.728;2023-08-12T12:34:02;11.45;;;4.07;;
51248;SDS011;39642;47.556;18.728;2023-08-12T12:36:33;12.25;;;4.05;;
51248;SDS011;39642;47.556;18.728;2023-08-12T12:39:00;9.00;;;3.33;;
51248;SDS011;39642;47.556;18.728;2023-08-12T12:41:26;9.75;;;3.40;;
51248;SDS011;39642;47.556;18.728;2023-08-12T12:43:52;10.05;;;2.78;;
51248;SDS011;39642;47.556;18.728;2023-08-12T12:46:18;9.38;;;3.42;;
51248;SDS011;39642;47.556;18.728;2023-08-12T12:48:44;8.20;;;2.40;;
51248;SDS011;39642;47.556;18.728;2023-08-12T12:51:11;7.82;;;2.70;;
51248;SDS011;39642;47.556;18.728;2023-08-12T12:53:38;9.63;;;3.40;;
51248;SDS011;39642;47.556;18.728;2023-08-12T12:56:04;10.95;;;4.03;;
51248;SDS011;39642;47.556;18.728;2023-08-12T12:58:31;9.73;;;3.60;;
51248;SDS011;39642;47.556;18.728;2023-08-12T13:00:59;8.32;;;2.92;;
51248;SDS011;39642;47.556;18.728;2023-08-12T13:03:25;9.73;;;3.45;;
51248;SDS011;39642;47.556;18.728;2023-08-12T13:05:51;10.88;;;3.80;;
51248;SDS011;39642;47.556;18.728;2023-08-12T13:08:17;11.20;;;3.87;;
51248;SDS011;39642;47.556;18.728;2023-08-12T13:10:44;12.30;;;4.10;;
51248;SDS011;39642;47.556;18.728;2023-08-12T13:13:10;11.15;;;4.47;;
51248;SDS011;39642;47.556;18.728;2023-08-12T13:15:36;13.35;;;4.65;;
51248;SDS011;39642;47.556;18.728;2023-08-12T13:18:02;11.90;;;4.50;;
51248;SDS011;39642;47.556;18.728;2023-08-12T13:20:28;13.77;;;4.37;;
51248;SDS011;39642;47.556;18.728;2023-08-12T13:22:54;10.57;;;4.10;;
51248;SDS011;39642;47.556;18.728;2023-08-12T13:25:20;12.30;;;4.60;;
51248;SDS011;39642;47.556;18.728;2023-08-12T13:27:46;12.35;;;4.57;;
51248;SDS011;39642;47.556;18.728;2023-08-12T13:30:12;12.55;;;4.90;;
51248;SDS011;39642;47.556;18.728;2023-08-12T13:32:38;11.38;;;4.57;;
51248;SDS011;39642;47.556;18.728;2023-08-12T13:35:04;13.30;;;5.20;;
51248;SDS011;39642;47.556;18.728;2023-08-12T13:37:31;11.77;;;4.87;;
51248;SDS011;39642;47.556;18.728;2023-08-12T13:39:58;13.40;;;6.00;;
51248;SDS011;39642;47.556;18.728;2023-08-12T13:42:24;11.82;;;5.15;;
51248;SDS011;39642;47.556;18.728;2023-08-12T13:44:50;13.93;;;6.28;;
51248;SDS011;39642;47.556;18.728;2023-08-12T13:47:16;12.30;;;5.30;;
51248;SDS011;39642;47.556;18.728;2023-08-12T13:49:41;13.32;;;5.28;;
51248;SDS011;39642;47.556;18.728;2023-08-12T13:52:07;14.43;;;5.87;;
51248;SDS011;39642;47.556;18.728;2023-08-12T13:54:33;13.32;;;6.40;;
51248;SDS011;39642;47.556;18.728;2023-08-12T13:56:59;15.13;;;6.28;;
51248;SDS011;39642;47.556;18.728;2023-08-12T13:59:25;13.90;;;6.00;;
51248;SDS011;39642;47.556;18.728;2023-08-12T14:01:51;14.32;;;6.68;;
51248;SDS011;39642;47.556;18.728;2023-08-12T14:04:17;13.80;;;7.05;;
51248;SDS011;39642;47.556;18.728;2023-08-12T14:06:42;15.23;;;7.50;;
51248;SDS011;39642;47.556;18.728;2023-08-12T14:09:09;16.62;;;7.22;;
51248;SDS011;39642;47.556;18.728;2023-08-12T14:11:36;16.25;;;6.97;;
51248;SDS011;39642;47.556;18.728;2023-08-12T14:14:02;16.25;;;7.60;;
51248;SDS011;39642;47.556;18.728;2023-08-12T14:16:29;15.20;;;7.55;;
51248;SDS011;39642;47.556;18.728;2023-08-12T14:18:55;15.93;;;7.60;;
51248;SDS011;39642;47.556;18.728;2023-08-12T14:21:21;17.67;;;7.85;;
51248;SDS011;39642;47.556;18.728;2023-08-12T14:23:47;15.30;;;7.70;;
51248;SDS011;39642;47.556;18.728;2023-08-12T14:26:12;16.37;;;7.82;;
51248;SDS011;39642;47.556;18.728;2023-08-12T14:28:38;16.10;;;7.47;;
51248;SDS011;39642;47.556;18.728;2023-08-12T14:31:04;17.77;;;8.50;;
51248;SDS011;39642;47.556;18.728;2023-08-12T14:33:30;17.20;;;8.23;;
51248;SDS011;39642;47.556;18.728;2023-08-12T14:35:59;16.73;;;8.38;;
51248;SDS011;39642;47.556;18.728;2023-08-12T14:38:25;16.52;;;8.50;;
51248;SDS011;39642;47.556;18.728;2023-08-12T14:40:51;16.90;;;8.60;;
51248;SDS011;39642;47.556;18.728;2023-08-12T14:43:17;16.30;;;8.00;;
51248;SDS011;39642;47.556;18.728;2023-08-12T14:45:45;16.75;;;8.27;;